Time;durP1;ratioP1;P1;durP2;ratioP2;P2;SDS_P1;SDS_P2;PMS_P1;PMS_P2;Temp;Humidity;BMP_temperature;BMP_pressure;BME280_temperature;BME280_humidity;BME280_pressure;Samples;Min_cycle;Max_cycle;Signal;HPM_P1;HPM_P2
2023/02/26 00:01:27;;;;;;;21.13;13.00;;;-1.30;99.90;;;;;;5047864;28;20045;-74
2023/02/26 00:03:56;;;;;;;13.55;12.55;;;-1.30;99.90;;;;;;5030144;28;20070;-74
2023/02/26 00:06:24;;;;;;;13.95;12.52;;;-1.30;99.90;;;;;;5043483;28;20045;-76
2023/02/26 00:08:52;;;;;;;12.52;11.40;;;-1.30;99.90;;;;;;5057444;28;20678;-76
2023/02/26 00:11:19;;;;;;;13.75;12.43;;;-1.40;99.90;;;;;;5035004;28;20053;-76
2023/02/26 00:13:46;;;;;;;12.55;11.75;;;-1.40;99.90;;;;;;5055178;28;20040;-74
2023/02/26 00:16:49;;;;;;;15.50;13.75;;;-1.40;99.90;;;;;;5059784;28;20179;-73
2023/02/26 00:19:16;;;;;;;12.90;11.90;;;-1.40;99.90;;;;;;4992402;28;20040;-74
2023/02/26 00:21:43;;;;;;;14.10;12.75;;;-1.40;99.90;;;;;;5042479;28;20109;-74
2023/02/26 00:24:09;;;;;;;13.38;12.43;;;-1.40;99.90;;;;;;5053946;28;20062;-74
2023/02/26 00:26:36;;;;;;;14.43;13.10;;;-1.50;99.90;;;;;;5038696;28;20037;-74
2023/02/26 00:29:03;;;;;;;13.00;12.20;;;-1.50;99.90;;;;;;5041784;28;20047;-74
2023/02/26 00:31:30;;;;;;;15.35;12.10;;;-1.50;99.90;;;;;;5040016;28;20433;-74
2023/02/26 00:33:58;;;;;;;13.82;12.57;;;-1.50;99.90;;;;;;5065261;28;20032;-74
2023/02/26 00:37:01;;;;;;;15.52;12.00;;;-1.50;99.90;;;;;;5041844;28;20043;-74
2023/02/26 00:40:05;;;;;;;15.50;12.82;;;-1.50;99.90;;;;;;5023091;28;20123;-76
2023/02/26 00:42:32;;;;;;;12.60;11.63;;;-1.70;99.90;;;;;;5051365;28;20480;-76
2023/02/26 00:44:59;;;;;;;13.10;11.70;;;-1.70;99.90;;;;;;5019727;28;20048;-76
2023/02/26 00:47:48;;;;;;;13.32;12.20;;;-1.60;99.90;;;;;;5045639;28;20500;-73
2023/02/26 00:50:18;;;;;;;14.10;12.68;;;-1.60;99.90;;;;;;5045712;28;20752;-74
2023/02/26 00:53:07;;;;;;;11.88;11.00;;;-1.60;99.90;;;;;;5028372;28;20549;-74
2023/02/26 00:55:34;;;;;;;12.82;11.13;;;-1.60;99.90;;;;;;5042055;28;20128;-73
2023/02/26 00:58:01;;;;;;;12.88;11.77;;;-1.60;99.90;;;;;;5035534;28;20035;-73
2023/02/26 01:00:28;;;;;;;13.18;11.95;;;-1.60;99.90;;;;;;5036003;28;20040;-74
2023/02/26 01:02:56;;;;;;;14.38;11.30;;;-1.70;99.90;;;;;;5033873;28;20052;-74
2023/02/26 01:05:23;;;;;;;13.27;11.85;;;-1.70;99.90;;;;;;5033107;28;20493;-74
2023/02/26 01:08:14;;;;;;;12.45;11.35;;;-1.70;99.90;;;;;;5032094;28;20513;-76
2023/02/26 01:10:42;;;;;;;12.05;11.07;;;-1.60;99.90;;;;;;5054135;28;20078;-76
2023/02/26 01:13:09;;;;;;;12.40;11.13;;;-1.70;99.90;;;;;;5035565;28;20059;-76
2023/02/26 01:15:36;;;;;;;16.10;11.60;;;-1.70;99.90;;;;;;5028745;28;20166;-76
2023/02/26 01:18:27;;;;;;;18.77;12.20;;;-1.70;99.90;;;;;;5037415;28;20044;-76
2023/02/26 01:20:59;;;;;;;15.82;11.82;;;-1.80;99.90;;;;;;5039475;28;20040;-76
2023/02/26 01:23:30;;;;;;;12.32;11.13;;;-1.80;99.90;;;;;;5063881;28;20040;-76
2023/02/26 01:26:09;;;;;;;19.20;12.27;;;-1.80;99.90;;;;;;5056599;28;20040;-76
2023/02/26 01:28:36;;;;;;;15.95;11.20;;;-1.80;99.90;;;;;;5058704;28;20045;-76
2023/02/26 01:31:06;;;;;;;14.48;11.25;;;-1.90;99.90;;;;;;5036623;28;20075;-76
2023/02/26 01:33:54;;;;;;;11.48;10.15;;;-1.90;99.90;;;;;;5030980;28;20551;-76
2023/02/26 01:36:23;;;;;;;15.05;10.75;;;-1.90;99.90;;;;;;5036554;28;20060;-76
2023/02/26 01:39:03;;;;;;;14.30;11.40;;;-1.80;99.90;;;;;;5045672;28;20040;-76
2023/02/26 01:41:40;;;;;;;12.25;10.25;;;-1.90;99.90;;;;;;5038569;28;20046;-76
2023/02/26 01:44:06;;;;;;;12.13;11.00;;;-1.90;99.90;;;;;;5031109;28;20052;-76
2023/02/26 01:46:52;;;;;;;11.98;10.77;;;-1.90;99.90;;;;;;5043135;28;20071;-75
2023/02/26 01:49:20;;;;;;;14.73;10.82;;;-2.00;99.90;;;;;;5014980;28;20171;-76
2023/02/26 01:51:51;;;;;;;13.48;11.57;;;-1.90;99.90;;;;;;5052177;28;20341;-76
2023/02/26 01:54:21;;;;;;;12.05;10.32;;;-1.90;99.90;;;;;;5036477;28;20044;-76
2023/02/26 01:57:05;;;;;;;12.65;10.45;;;-1.80;99.90;;;;;;5045379;28;20469;-76
2023/02/26 01:59:35;;;;;;;14.60;10.77;;;-1.80;99.90;;;;;;5049581;28;20048;-76
2023/02/26 02:02:05;;;;;;;15.52;10.35;;;-1.80;99.90;;;;;;5046294;28;20041;-75
2023/02/26 02:04:33;;;;;;;13.60;10.77;;;-1.80;99.90;;;;;;5049413;28;20075;-77
2023/02/26 02:07:00;;;;;;;17.63;11.05;;;-1.70;99.90;;;;;;5047544;28;20089;-76
2023/02/26 02:09:27;;;;;;;11.77;10.38;;;-1.80;99.90;;;;;;5042881;28;20037;-78
2023/02/26 02:12:06;;;;;;;10.93;9.85;;;-1.80;99.90;;;;;;5035859;28;20097;-78
2023/02/26 02:15:08;;;;;;;14.25;10.82;;;-1.80;99.90;;;;;;5050813;28;20160;-77
2023/02/26 02:18:14;;;;;;;18.60;10.80;;;-1.70;99.90;;;;;;5040783;28;20714;-76
2023/02/26 02:20:59;;;;;;;;;;;-1.70;99.90;;;;;;4954824;28;20069;-74
2023/02/26 02:23:39;;;;;;;13.23;11.02;;;-1.70;99.90;;;;;;5028914;28;19934;-76
2023/02/26 02:26:05;;;;;;;17.65;9.15;;;-1.60;99.90;;;;;;5025085;28;20101;-72
2023/02/26 02:28:52;;;;;;;11.70;10.57;;;-1.60;99.90;;;;;;5068503;28;20128;-77
2023/02/26 02:31:30;;;;;;;10.88;10.00;;;-1.50;99.90;;;;;;5036636;28;20670;-77
2023/02/26 02:34:20;;;;;;;11.07;9.75;;;-1.50;99.90;;;;;;5029321;28;20040;-76
2023/02/26 02:37:16;;;;;;;11.02;10.02;;;-1.50;99.90;;;;;;5036813;28;20052;-77
2023/02/26 02:39:51;;;;;;;12.32;9.73;;;-1.50;99.90;;;;;;5044503;28;20091;-77
2023/02/26 02:42:28;;;;;;;11.40;10.27;;;-1.50;99.90;;;;;;5048838;28;20047;-78
2023/02/26 02:45:07;;;;;;;12.80;11.25;;;-1.50;99.90;;;;;;5029895;28;20098;-79
2023/02/26 02:47:38;;;;;;;11.02;10.07;;;-1.40;99.90;;;;;;5054750;28;20132;-74
2023/02/26 02:50:23;;;;;;;12.48;10.00;;;-1.40;99.90;;;;;;5024900;28;20071;-76
2023/02/26 02:52:56;;;;;;;12.75;10.63;;;-1.40;99.90;;;;;;5040961;28;20073;-74
2023/02/26 02:55:29;;;;;;;12.05;10.90;;;-1.40;99.90;;;;;;5053565;28;20040;-78
2023/02/26 02:58:30;;;;;;;12.23;11.00;;;-1.40;99.90;;;;;;5027769;28;20529;-78
2023/02/26 03:01:01;;;;;;;12.07;10.80;;;-1.50;99.90;;;;;;4994041;28;20471;-77
2023/02/26 03:03:31;;;;;;;13.23;10.70;;;-1.40;99.90;;;;;;5060033;28;20048;-75
2023/02/26 03:05:58;;;;;;;12.00;10.80;;;-1.50;99.90;;;;;;5041885;28;20040;-74
2023/02/26 03:08:33;;;;;;;12.35;11.15;;;-1.50;99.90;;;;;;5043955;28;20049;-76
2023/02/26 03:11:00;;;;;;;12.40;11.18;;;-1.50;99.90;;;;;;5030115;28;20040;-77
2023/02/26 03:13:27;;;;;;;15.65;11.48;;;-1.50;99.90;;;;;;5042063;28;20090;-75
2023/02/26 03:16:33;;;;;;;13.10;11.90;;;-1.50;99.90;;;;;;5045122;28;20043;-77
2023/02/26 03:19:25;;;;;;;13.85;12.50;;;-1.50;99.90;;;;;;5027188;28;20134;-74
2023/02/26 03:22:12;;;;;;;13.90;12.48;;;-1.50;99.90;;;;;;5032046;28;20139;-76
2023/02/26 03:25:10;;;;;;;12.60;11.60;;;-1.50;99.90;;;;;;5037029;28;20043;-74
2023/02/26 03:27:39;;;;;;;12.25;11.15;;;-1.40;99.90;;;;;;5043434;28;20040;-76
2023/02/26 03:30:25;;;;;;;13.77;12.35;;;-1.40;99.90;;;;;;5049433;28;20043;-74
2023/02/26 03:33:18;;;;;;;13.18;11.82;;;-1.40;99.90;;;;;;5026093;28;20144;-73
2023/02/26 03:35:51;;;;;;;14.20;11.75;;;-1.40;99.90;;;;;;5024775;28;20472;-76
2023/02/26 03:38:44;;;;;;;12.70;11.40;;;-1.50;99.90;;;;;;5043059;28;20678;-76
2023/02/26 03:41:16;;;;;;;13.50;10.20;;;-1.50;99.90;;;;;;5061537;28;20127;-77
2023/02/26 03:43:54;;;;;;;17.40;10.25;;;-1.50;99.90;;;;;;5043929;28;20139;-74
2023/02/26 03:46:31;;;;;;;13.52;10.02;;;-1.50;99.90;;;;;;5031288;28;20136;-77
2023/02/26 03:49:05;;;;;;;14.55;9.65;;;-1.50;99.90;;;;;;5045628;28;20149;-77
2023/02/26 03:51:34;;;;;;;9.25;8.35;;;-1.60;99.90;;;;;;5040322;28;20033;-76
2023/02/26 03:54:54;;;;;;;12.25;10.00;;;-1.60;99.90;;;;;;5035313;28;20420;-74
2023/02/26 03:57:41;;;;;;;12.60;9.95;;;-1.70;99.90;;;;;;5017164;28;20044;-73
2023/02/26 04:00:23;;;;;;;16.02;9.77;;;-1.70;99.90;;;;;;5041650;28;20044;-77
2023/02/26 04:03:19;;;;;;;13.88;9.98;;;-1.70;99.90;;;;;;5046413;28;20056;-76
2023/02/26 04:05:49;;;;;;;16.35;9.45;;;-1.70;99.90;;;;;;5051654;28;20052;-75
2023/02/26 04:08:17;;;;;;;14.10;11.13;;;-1.70;99.90;;;;;;5033960;28;20536;-74
2023/02/26 04:10:53;;;;;;;11.85;9.82;;;-1.70;99.90;;;;;;5043753;28;20126;-74
2023/02/26 04:13:20;;;;;;;11.70;9.93;;;-1.80;99.90;;;;;;5034072;28;20036;-75
2023/02/26 04:15:48;;;;;;;12.93;9.95;;;-1.80;99.90;;;;;;5022216;28;20471;-76
2023/02/26 04:18:15;;;;;;;11.95;9.93;;;-1.80;99.90;;;;;;5044565;28;20110;-77
2023/02/26 04:20:42;;;;;;;11.40;10.23;;;-1.80;99.90;;;;;;5039430;28;20275;-75
2023/02/26 04:23:09;;;;;;;18.38;11.40;;;-1.80;99.90;;;;;;5033760;28;20086;-75
2023/02/26 04:25:36;;;;;;;16.75;10.20;;;-1.90;99.90;;;;;;5019200;28;20048;-75
2023/02/26 04:28:03;;;;;;;15.48;10.10;;;-1.90;99.90;;;;;;5039928;28;20119;-74
2023/02/26 04:30:31;;;;;;;16.08;10.40;;;-1.90;99.90;;;;;;5035530;28;20036;-74
2023/02/26 04:32:58;;;;;;;15.30;10.48;;;-2.00;99.90;;;;;;5023749;28;20047;-74
2023/02/26 04:35:25;;;;;;;15.50;9.73;;;-2.00;99.90;;;;;;5014302;28;20077;-75
2023/02/26 04:37:52;;;;;;;21.23;11.45;;;-2.00;99.90;;;;;;5038951;28;20143;-76
2023/02/26 04:40:19;;;;;;;13.00;10.27;;;-2.00;99.90;;;;;;5025222;28;20135;-75
2023/02/26 04:42:46;;;;;;;11.70;9.60;;;-2.00;99.90;;;;;;5020538;28;20428;-76
2023/02/26 04:45:18;;;;;;;12.70;10.05;;;-2.10;99.90;;;;;;5030060;28;20135;-77
2023/02/26 04:47:45;;;;;;;12.82;9.65;;;-2.20;99.90;;;;;;5032017;28;20082;-74
2023/02/26 04:50:12;;;;;;;19.58;9.52;;;-2.10;99.90;;;;;;5026401;28;20532;-73
2023/02/26 04:52:39;;;;;;;11.48;10.27;;;-2.10;99.90;;;;;;5043769;28;20044;-75
2023/02/26 04:55:06;;;;;;;11.65;10.32;;;-2.10;99.90;;;;;;5020593;28;20048;-76
2023/02/26 04:57:36;;;;;;;11.63;10.35;;;-2.10;99.90;;;;;;5021101;28;20040;-76
2023/02/26 05:00:07;;;;;;;11.45;10.25;;;-2.10;99.90;;;;;;5032408;28;20139;-76
2023/02/26 05:02:37;;;;;;;12.75;10.30;;;-2.00;99.90;;;;;;5022941;28;20147;-77
2023/02/26 05:05:04;;;;;;;11.32;9.35;;;-1.90;99.90;;;;;;5025778;28;20059;-75
2023/02/26 05:07:32;;;;;;;17.10;10.07;;;-1.90;99.90;;;;;;5039325;28;20586;-75
2023/02/26 05:09:59;;;;;;;11.98;10.15;;;-1.90;99.90;;;;;;5045956;28;20408;-77
2023/02/26 05:12:27;;;;;;;18.70;10.27;;;-1.90;99.90;;;;;;5023572;28;20121;-77
2023/02/26 05:14:53;;;;;;;16.23;11.65;;;-1.90;99.90;;;;;;5039222;28;20250;-75
2023/02/26 05:17:20;;;;;;;18.40;12.05;;;-1.80;99.90;;;;;;5036833;28;20036;-75
2023/02/26 05:19:47;;;;;;;13.48;10.98;;;-1.80;99.90;;;;;;5042670;28;20045;-78
2023/02/26 05:22:14;;;;;;;19.48;12.10;;;-1.80;99.90;;;;;;5029562;28;20291;-76
2023/02/26 05:24:41;;;;;;;18.38;13.13;;;-1.70;99.90;;;;;;5027392;28;20435;-75
2023/02/26 05:27:09;;;;;;;14.05;12.18;;;-1.70;99.90;;;;;;5035474;28;20051;-79
2023/02/26 05:29:43;;;;;;;16.83;12.68;;;-1.70;99.90;;;;;;5036974;28;20040;-76
2023/02/26 05:32:12;;;;;;;15.52;12.85;;;-1.70;99.90;;;;;;5030155;28;20529;-74
2023/02/26 05:34:39;;;;;;;16.75;13.75;;;-1.70;99.90;;;;;;5036901;28;20377;-74
2023/02/26 05:37:05;;;;;;;17.90;13.25;;;-1.60;99.90;;;;;;5043139;28;20485;-75
2023/02/26 05:39:32;;;;;;;18.15;14.48;;;-1.60;99.90;;;;;;5037764;28;20055;-76
2023/02/26 05:41:59;;;;;;;14.75;13.20;;;-1.50;99.90;;;;;;5059414;28;20059;-76
2023/02/26 05:44:25;;;;;;;16.20;13.43;;;-1.60;99.90;;;;;;5031006;28;20044;-75
2023/02/26 05:46:52;;;;;;;18.40;12.07;;;-1.60;99.90;;;;;;5051371;28;20516;-76
2023/02/26 05:49:19;;;;;;;15.88;13.40;;;-1.60;99.90;;;;;;5045341;28;20041;-75
2023/02/26 05:51:45;;;;;;;20.77;12.90;;;-1.70;99.90;;;;;;5043232;28;20071;-76
2023/02/26 05:54:12;;;;;;;14.15;11.95;;;-1.70;99.90;;;;;;5047600;28;20032;-75
2023/02/26 05:56:39;;;;;;;16.58;12.43;;;-1.70;99.90;;;;;;5029321;28;20035;-74
2023/02/26 05:59:06;;;;;;;18.20;12.50;;;-1.70;99.90;;;;;;5047136;28;20044;-76
2023/02/26 06:01:33;;;;;;;14.82;12.07;;;-1.70;99.90;;;;;;5037990;28;20081;-75
2023/02/26 06:03:59;;;;;;;14.20;11.68;;;-1.70;99.90;;;;;;5027702;28;20067;-77
2023/02/26 06:06:26;;;;;;;19.83;14.15;;;-1.70;99.90;;;;;;5045344;28;20036;-76
2023/02/26 06:08:53;;;;;;;22.42;12.10;;;-1.70;99.90;;;;;;5051720;28;20146;-75
2023/02/26 06:11:20;;;;;;;13.10;11.75;;;-1.70;99.90;;;;;;5042917;28;20035;-75
2023/02/26 06:13:46;;;;;;;17.70;12.52;;;-1.70;99.90;;;;;;5043350;28;20367;-74
2023/02/26 06:16:13;;;;;;;13.82;11.73;;;-1.70;99.90;;;;;;5040093;28;20033;-76
2023/02/26 06:18:40;;;;;;;15.73;14.02;;;-1.70;99.90;;;;;;5045988;28;20109;-75
2023/02/26 06:21:08;;;;;;;17.35;11.95;;;-1.70;99.90;;;;;;5049114;28;20335;-76
2023/02/26 06:23:35;;;;;;;15.82;11.98;;;-1.70;99.90;;;;;;5028681;28;20459;-79
2023/02/26 06:26:02;;;;;;;16.15;12.82;;;-1.80;99.90;;;;;;5028261;28;20520;-76
2023/02/26 06:28:28;;;;;;;15.32;12.98;;;-1.70;99.90;;;;;;5029653;28;20383;-74
2023/02/26 06:30:55;;;;;;;16.40;12.23;;;-1.80;99.90;;;;;;5038948;28;20041;-76
2023/02/26 06:33:22;;;;;;;14.30;12.82;;;-1.70;99.90;;;;;;5044943;28;20515;-75
2023/02/26 06:35:49;;;;;;;16.45;13.00;;;-1.70;99.90;;;;;;5051507;28;20036;-76
2023/02/26 06:38:17;;;;;;;15.95;12.05;;;-1.70;99.90;;;;;;5039180;28;20118;-77
2023/02/26 06:40:44;;;;;;;14.80;13.25;;;-1.70;99.90;;;;;;5039768;28;20115;-77
2023/02/26 06:43:11;;;;;;;18.00;12.93;;;-1.70;99.90;;;;;;5031390;28;20312;-77
2023/02/26 06:45:38;;;;;;;15.10;13.65;;;-1.70;99.90;;;;;;5043298;28;20041;-76
2023/02/26 06:48:05;;;;;;;14.52;13.02;;;-1.70;99.90;;;;;;5043986;28;20613;-75
2023/02/26 06:50:32;;;;;;;14.75;13.45;;;-1.70;99.90;;;;;;5041585;28;20080;-75
2023/02/26 06:52:59;;;;;;;18.10;16.20;;;-1.60;99.90;;;;;;5044428;28;20049;-77
2023/02/26 06:55:25;;;;;;;15.93;14.30;;;-1.60;99.90;;;;;;5037553;28;20631;-74
2023/02/26 06:57:56;;;;;;;16.42;14.93;;;-1.70;99.90;;;;;;5042074;28;20052;-76
2023/02/26 07:00:24;;;;;;;17.55;15.82;;;-1.50;99.90;;;;;;5042954;28;20045;-76
2023/02/26 07:02:51;;;;;;;15.57;14.18;;;-1.60;99.90;;;;;;5062196;28;20040;-76
2023/02/26 07:05:19;;;;;;;16.30;14.65;;;-1.50;99.90;;;;;;5043370;28;20129;-75
2023/02/26 07:07:45;;;;;;;14.57;13.68;;;-1.50;99.90;;;;;;5042233;28;20463;-73
2023/02/26 07:10:13;;;;;;;16.67;15.10;;;-1.60;99.90;;;;;;5043286;28;20173;-77
2023/02/26 07:12:39;;;;;;;16.55;14.82;;;-1.50;99.90;;;;;;5036847;28;20036;-76
2023/02/26 07:15:07;;;;;;;15.52;14.38;;;-1.60;99.90;;;;;;5038591;28;20041;-75
2023/02/26 07:17:33;;;;;;;16.58;15.32;;;-1.50;99.90;;;;;;5024850;28;20041;-75
2023/02/26 07:20:05;;;;;;;17.85;16.45;;;-1.50;99.90;;;;;;5043045;28;20055;-74
2023/02/26 07:22:32;;;;;;;17.08;15.55;;;-1.50;99.90;;;;;;5029858;28;20072;-75
2023/02/26 07:24:59;;;;;;;17.17;16.02;;;-1.40;99.90;;;;;;5036141;28;20498;-75
2023/02/26 07:27:26;;;;;;;20.48;18.15;;;-1.40;99.90;;;;;;5037233;28;20127;-75
2023/02/26 07:29:53;;;;;;;17.50;16.23;;;-1.50;99.90;;;;;;5037313;28;20363;-76
2023/02/26 07:32:19;;;;;;;17.33;16.15;;;-1.50;99.90;;;;;;5054725;28;20506;-75
2023/02/26 07:34:46;;;;;;;18.95;17.63;;;-1.50;99.90;;;;;;5033984;28;20052;-74
2023/02/26 07:37:13;;;;;;;17.25;15.95;;;-1.60;99.90;;;;;;5045031;28;20032;-75
2023/02/26 07:39:40;;;;;;;19.90;18.63;;;-1.60;99.90;;;;;;5029801;28;20186;-77
2023/02/26 07:42:08;;;;;;;18.17;16.92;;;-1.50;99.90;;;;;;5022789;28;20183;-77
2023/02/26 07:44:35;;;;;;;18.23;16.90;;;-1.50;99.90;;;;;;5045669;28;20044;-77
2023/02/26 07:47:02;;;;;;;17.70;16.67;;;-1.70;99.90;;;;;;5060729;28;20398;-76
2023/02/26 07:49:28;;;;;;;19.77;18.67;;;-1.60;99.90;;;;;;5041490;28;20742;-77
2023/02/26 07:51:55;;;;;;;19.48;18.50;;;-1.60;99.90;;;;;;5016471;28;20044;-76
2023/02/26 07:54:22;;;;;;;18.27;17.27;;;-1.60;99.90;;;;;;5059217;28;20033;-76
2023/02/26 07:56:49;;;;;;;20.30;19.05;;;-1.60;99.90;;;;;;5058010;28;20040;-75
2023/02/26 07:59:16;;;;;;;19.85;18.65;;;-1.60;99.90;;;;;;5020624;28;20147;-75
2023/02/26 08:01:42;;;;;;;22.10;20.63;;;-1.50;99.90;;;;;;5036254;28;20041;-76
2023/02/26 08:04:09;;;;;;;20.95;19.73;;;-1.50;99.90;;;;;;5054699;28;20068;-78
2023/02/26 08:06:36;;;;;;;22.02;20.40;;;-1.40;99.90;;;;;;5051489;28;20048;-76
2023/02/26 08:09:04;;;;;;;21.20;20.10;;;-1.40;99.90;;;;;;5039459;28;20554;-75
2023/02/26 08:11:38;;;;;;;21.95;20.75;;;-1.40;99.90;;;;;;5035472;28;20121;-77
2023/02/26 08:14:06;;;;;;;23.65;21.83;;;-1.20;99.90;;;;;;5034769;28;20051;-76
2023/02/26 08:16:33;;;;;;;22.27;21.17;;;-1.20;99.90;;;;;;5028255;28;20557;-76
2023/02/26 08:19:00;;;;;;;22.70;21.30;;;-1.20;99.90;;;;;;5037426;28;20048;-76
2023/02/26 08:21:26;;;;;;;24.27;22.80;;;-1.20;99.90;;;;;;5018954;28;20106;-74
2023/02/26 08:23:54;;;;;;;26.90;25.05;;;-1.10;99.90;;;;;;5021034;28;20040;-77
2023/02/26 08:26:20;;;;;;;26.02;24.27;;;-1.10;99.90;;;;;;5026197;28;20040;-75
2023/02/26 08:28:47;;;;;;;27.15;25.70;;;-1.00;99.90;;;;;;5060883;28;20081;-75
2023/02/26 08:31:15;;;;;;;27.55;25.88;;;-0.70;99.90;;;;;;5034612;28;20033;-74
2023/02/26 08:33:42;;;;;;;24.23;23.02;;;-0.50;99.90;;;;;;5037209;28;20044;-75
2023/02/26 08:36:09;;;;;;;31.85;30.33;;;-0.40;99.90;;;;;;5052621;28;20169;-75
2023/02/26 08:38:35;;;;;;;29.65;28.05;;;-0.30;99.90;;;;;;5040731;28;20064;-77
2023/02/26 08:41:02;;;;;;;32.28;30.58;;;0.00;99.90;;;;;;5054939;28;20055;-76
2023/02/26 08:43:29;;;;;;;30.67;28.98;;;0.00;99.90;;;;;;5058372;28;20612;-76
2023/02/26 08:45:56;;;;;;;28.20;26.60;;;-0.10;99.90;;;;;;5049802;28;20138;-77
2023/02/26 08:48:23;;;;;;;34.15;32.30;;;-0.20;99.90;;;;;;5034788;28;20505;-77
2023/02/26 08:50:50;;;;;;;29.52;27.92;;;0.10;99.90;;;;;;5059404;28;20070;-74
2023/02/26 08:53:17;;;;;;;29.58;27.85;;;-0.30;99.90;;;;;;5020371;28;20069;-75
2023/02/26 08:55:48;;;;;;;30.42;28.73;;;-0.30;99.90;;;;;;5025298;28;20270;-75
2023/02/26 08:58:15;;;;;;;29.95;28.33;;;0.00;99.90;;;;;;5048121;28;20128;-77
2023/02/26 09:00:42;;;;;;;30.23;28.55;;;0.40;99.90;;;;;;5035050;28;20556;-74
2023/02/26 09:03:09;;;;;;;31.02;29.20;;;0.50;99.90;;;;;;5042788;28;20055;-76
2023/02/26 09:05:36;;;;;;;31.83;29.50;;;0.40;99.90;;;;;;5023596;28;20099;-74
2023/02/26 09:08:03;;;;;;;33.17;31.58;;;0.10;99.90;;;;;;5056243;28;20052;-77
2023/02/26 09:10:29;;;;;;;31.20;29.05;;;0.20;99.90;;;;;;5048976;28;20055;-74
2023/02/26 09:12:56;;;;;;;34.40;32.90;;;0.30;99.90;;;;;;5043950;28;20136;-77
2023/02/26 09:15:23;;;;;;;30.05;28.73;;;0.20;99.90;;;;;;5061225;28;20535;-76
2023/02/26 09:17:50;;;;;;;31.17;29.50;;;0.30;99.90;;;;;;5025194;28;20078;-73
2023/02/26 09:20:17;;;;;;;32.70;30.48;;;0.50;99.90;;;;;;5037486;28;20440;-75
2023/02/26 09:22:44;;;;;;;31.05;29.33;;;0.90;99.90;;;;;;5040742;28;20059;-73
2023/02/26 09:25:11;;;;;;;32.30;30.45;;;1.00;99.90;;;;;;5041466;28;20075;-75
2023/02/26 09:27:37;;;;;;;32.10;30.33;;;0.80;99.90;;;;;;5040654;28;20048;-77
2023/02/26 09:30:05;;;;;;;27.20;25.58;;;0.80;99.90;;;;;;5061969;28;20048;-77
2023/02/26 09:32:32;;;;;;;31.00;29.38;;;0.90;99.90;;;;;;5045458;28;20032;-75
2023/02/26 09:34:59;;;;;;;28.15;26.65;;;1.00;99.90;;;;;;5059400;28;20031;-76
2023/02/26 09:37:25;;;;;;;30.05;28.52;;;1.00;99.90;;;;;;5035261;28;20058;-76
2023/02/26 09:39:52;;;;;;;34.83;33.08;;;0.70;99.90;;;;;;5034397;23;20097;-71
2023/02/26 09:42:53;;;;;;;28.45;26.77;;;0.50;99.90;;;;;;5047323;28;20245;-72
2023/02/26 09:45:54;;;;;;;27.55;26.17;;;0.50;99.90;;;;;;5035118;28;20116;-70
2023/02/26 09:48:23;;;;;;;27.80;26.42;;;0.60;99.90;;;;;;4997660;28;20139;-70
2023/02/26 09:50:56;;;;;;;31.67;29.98;;;0.70;99.90;;;;;;5043558;28;20070;-70
2023/02/26 09:53:26;;;;;;;31.05;29.55;;;0.80;99.90;;;;;;5045615;28;20598;-70
2023/02/26 09:56:00;;;;;;;29.80;28.15;;;0.30;99.90;;;;;;5034342;28;20049;-68
2023/02/26 09:58:34;;;;;;;29.83;28.20;;;0.10;99.90;;;;;;5047054;28;20590;-69
2023/02/26 10:01:22;;;;;;;29.27;27.67;;;0.10;99.90;;;;;;5032830;28;20095;-69
2023/02/26 10:04:10;;;;;;;28.23;26.50;;;0.00;99.90;;;;;;5028723;28;20044;-72
2023/02/26 10:06:55;;;;;;;31.10;29.60;;;0.10;99.90;;;;;;5024664;28;20059;-69
2023/02/26 10:09:29;;;;;;;30.27;28.55;;;0.50;99.90;;;;;;5037010;28;20048;-72
2023/02/26 10:12:05;;;;;;;29.70;28.10;;;0.80;99.90;;;;;;5048713;28;20730;-71
2023/02/26 10:14:53;;;;;;;30.35;28.48;;;0.90;99.90;;;;;;5043172;28;20902;-72
2023/02/26 10:17:28;;;;;;;26.48;24.90;;;0.60;99.90;;;;;;5056548;28;20048;-71
2023/02/26 10:20:01;;;;;;;28.27;26.77;;;0.50;99.90;;;;;;5028329;28;20554;-72
2023/02/26 10:22:56;;;;;;;29.52;27.33;;;0.80;99.90;;;;;;5040484;28;20498;-73
2023/02/26 10:25:48;;;;;;;30.33;28.53;;;1.30;99.90;;;;;;5043517;28;20037;-70
2023/02/26 10:28:33;;;;;;;29.77;27.77;;;1.30;99.90;;;;;;5047983;28;20245;-70
2023/02/26 10:31:22;;;;;;;30.88;28.90;;;1.40;99.90;;;;;;5039310;28;20053;-70
2023/02/26 10:33:59;;;;;;;30.67;28.70;;;1.50;99.90;;;;;;5044139;28;20147;-70
2023/02/26 10:36:29;;;;;;;29.55;27.48;;;1.40;99.90;;;;;;5051941;28;20079;-69
2023/02/26 10:39:15;;;;;;;30.77;28.98;;;1.40;99.90;;;;;;5042240;28;20553;-70
2023/02/26 10:41:42;;;;;;;30.77;28.88;;;1.70;99.90;;;;;;5049865;28;20053;-70
2023/02/26 10:44:36;;;;;;;30.98;28.88;;;1.50;99.90;;;;;;5032303;28;20048;-70
2023/02/26 10:47:42;;;;;;;31.67;29.77;;;1.60;99.90;;;;;;5045745;28;20418;-70
2023/02/26 10:50:13;;;;;;;27.42;25.83;;;1.70;99.90;;;;;;5035006;28;20064;-69
2023/02/26 10:52:43;;;;;;;26.02;24.50;;;1.40;99.90;;;;;;5042976;28;20132;-70
2023/02/26 10:55:25;;;;;;;26.55;25.05;;;1.30;99.90;;;;;;5032124;28;20217;-69
2023/02/26 10:58:04;;;;;;;28.95;27.05;;;1.10;99.90;;;;;;5038516;28;20044;-69
2023/02/26 11:00:34;;;;;;;29.42;27.75;;;1.50;99.90;;;;;;5057687;28;20039;-70
2023/02/26 11:03:02;;;;;;;27.60;25.90;;;2.20;99.90;;;;;;5030207;28;20107;-70
2023/02/26 11:05:31;;;;;;;30.25;28.45;;;2.00;99.90;;;;;;5034005;28;20152;-69
2023/02/26 11:08:08;;;;;;;30.02;28.27;;;1.70;99.90;;;;;;5044411;28;20048;-69
2023/02/26 11:10:50;;;;;;;29.80;28.20;;;1.50;99.90;;;;;;5026741;28;20133;-71
2023/02/26 11:13:17;;;;;;;28.52;26.83;;;1.30;99.90;;;;;;5032264;28;20087;-71
2023/02/26 11:15:50;;;;;;;27.40;25.90;;;1.30;99.90;;;;;;5034024;28;20040;-70
2023/02/26 11:18:30;;;;;;;26.23;24.45;;;1.80;99.90;;;;;;5052859;28;20048;-69
2023/02/26 11:20:59;;;;;;;28.85;26.95;;;2.30;99.90;;;;;;5031343;28;20128;-71
2023/02/26 11:23:29;;;;;;;28.08;26.05;;;2.60;99.90;;;;;;5038613;28;20513;-72
2023/02/26 11:26:05;;;;;;;31.42;29.63;;;2.50;99.90;;;;;;5042878;28;20278;-72
2023/02/26 11:28:45;;;;;;;31.55;29.63;;;2.40;99.90;;;;;;5047169;28;20036;-71
2023/02/26 11:31:17;;;;;;;30.85;28.90;;;2.00;99.90;;;;;;5053441;28;20048;-71
2023/02/26 11:33:49;;;;;;;27.85;26.02;;;1.70;99.90;;;;;;5039332;28;20041;-70
2023/02/26 11:36:19;;;;;;;30.13;28.17;;;1.50;99.90;;;;;;5030770;28;20501;-70
2023/02/26 11:38:52;;;;;;;31.65;29.63;;;1.90;99.90;;;;;;5043958;28;20147;-70
2023/02/26 11:41:20;;;;;;;30.65;28.80;;;2.10;99.90;;;;;;5031258;28;20515;-70
2023/02/26 11:43:55;;;;;;;26.52;24.77;;;1.80;99.90;;;;;;5029672;28;20504;-71
2023/02/26 11:46:24;;;;;;;28.80;26.90;;;1.70;99.90;;;;;;5042987;28;20369;-70
2023/02/26 11:48:54;;;;;;;28.35;26.55;;;2.00;99.90;;;;;;5031229;28;20767;-70
2023/02/26 11:51:25;;;;;;;27.90;25.90;;;2.20;99.90;;;;;;5030750;28;20153;-72
2023/02/26 11:53:56;;;;;;;26.83;25.13;;;2.20;99.90;;;;;;5027459;28;20045;-72
2023/02/26 11:56:30;;;;;;;32.05;29.95;;;2.40;99.90;;;;;;5041524;28;20136;-71
2023/02/26 11:59:04;;;;;;;27.77;26.08;;;2.40;99.90;;;;;;5031743;28;20086;-70
2023/02/26 12:01:31;;;;;;;35.03;33.08;;;2.50;99.90;;;;;;5027008;28;20041;-69
2023/02/26 12:04:01;;;;;;;30.50;28.65;;;2.40;99.90;;;;;;5044681;28;20049;-72
2023/02/26 12:06:29;;;;;;;36.70;34.67;;;1.80;99.90;;;;;;5026893;28;20045;-71
2023/02/26 12:08:56;;;;;;;28.13;26.42;;;1.40;99.90;;;;;;5036704;28;20329;-72
2023/02/26 12:11:45;;;;;;;27.58;25.98;;;1.50;99.90;;;;;;5030340;28;20075;-72
2023/02/26 12:14:36;;;;;;;32.90;31.05;;;1.90;99.90;;;;;;5046088;28;20704;-70
2023/02/26 12:17:12;;;;;;;32.88;31.08;;;2.20;99.90;;;;;;5045379;28;20045;-72
2023/02/26 12:20:21;;;;;;;35.10;32.95;;;2.20;99.90;;;;;;5040936;28;20347;-70
2023/02/26 12:22:53;;;;;;;34.10;32.30;;;2.10;99.90;;;;;;5043776;28;20036;-71
2023/02/26 12:25:32;;;;;;;33.92;31.92;;;1.90;99.90;;;;;;5038067;28;20060;-72
2023/02/26 12:28:30;;;;;;;34.47;32.28;;;2.10;99.90;;;;;;5031960;28;20054;-72
2023/02/26 12:31:05;;;;;;;33.70;31.70;;;2.10;99.90;;;;;;5038967;28;20033;-73
2023/02/26 12:34:07;;;;;;;33.15;31.42;;;2.50;99.90;;;;;;5031912;28;20526;-72
2023/02/26 12:36:52;;;;;;;35.50;33.33;;;2.90;99.90;;;;;;5029511;28;20044;-71
2023/02/26 12:39:39;;;;;;;39.58;37.15;;;2.80;99.90;;;;;;5030903;28;20286;-72
2023/02/26 12:42:14;;;;;;;40.65;38.13;;;2.40;99.90;;;;;;5030270;28;20049;-71
2023/02/26 12:44:51;;;;;;;34.45;32.55;;;2.20;99.90;;;;;;5045235;28;20063;-71
2023/02/26 12:47:34;;;;;;;36.17;34.38;;;1.90;99.90;;;;;;5048042;28;20151;-70
2023/02/26 12:50:09;;;;;;;34.60;32.75;;;2.10;99.90;;;;;;5042249;28;20109;-70
2023/02/26 12:53:04;;;;;;;35.63;33.38;;;1.70;99.90;;;;;;5037009;28;20098;-70
2023/02/26 12:55:55;;;;;;;28.17;26.48;;;2.00;99.90;;;;;;5048111;28;20198;-71
2023/02/26 12:58:38;;;;;;;33.75;31.92;;;2.20;99.90;;;;;;5032625;28;20208;-72
2023/02/26 13:01:26;;;;;;;32.13;30.33;;;2.30;99.90;;;;;;5046404;28;20390;-70